sensor_id;sensor_type;location;lat;lon;timestamp;P1;durP1;ratioP1;P2;durP2;ratioP2
27740;SDS011;15134;48.768;9.184;2022-12-05T00:03:51;35.95;;;16.50;;
27740;SDS011;15134;48.768;9.184;2022-12-05T00:06:18;36.63;;;15.95;;
27740;SDS011;15134;48.768;9.184;2022-12-05T00:08:45;35.92;;;16.80;;
27740;SDS011;15134;48.768;9.184;2022-12-05T00:11:13;38.00;;;16.42;;
27740;SDS011;15134;48.768;9.184;2022-12-05T00:13:40;35.30;;;16.85;;
27740;SDS011;15134;48.768;9.184;2022-12-05T00:16:10;37.30;;;16.02;;
27740;SDS011;15134;48.768;9.184;2022-12-05T00:18:37;37.92;;;16.92;;
27740;SDS011;15134;48.768;9.184;2022-12-05T00:21:03;38.47;;;16.48;;
27740;SDS011;15134;48.768;9.184;2022-12-05T00:23:33;33.20;;;16.17;;
27740;SDS011;15134;48.768;9.184;2022-12-05T00:26:04;33.95;;;16.30;;
27740;SDS011;15134;48.768;9.184;2022-12-05T00:28:31;36.33;;;17.73;;
27740;SDS011;15134;48.768;9.184;2022-12-05T00:31:04;38.08;;;16.73;;
27740;SDS011;15134;48.768;9.184;2022-12-05T00:33:34;41.45;;;17.27;;
27740;SDS011;15134;48.768;9.184;2022-12-05T00:36:04;35.35;;;16.20;;
27740;SDS011;15134;48.768;9.184;2022-12-05T00:38:38;36.28;;;15.57;;
27740;SDS011;15134;48.768;9.184;2022-12-05T00:41:04;35.58;;;16.17;;
27740;SDS011;15134;48.768;9.184;2022-12-05T00:43:35;33.53;;;15.90;;
27740;SDS011;15134;48.768;9.184;2022-12-05T00:48:29;33.72;;;15.13;;
27740;SDS011;15134;48.768;9.184;2022-12-05T00:51:06;34.50;;;15.48;;
27740;SDS011;15134;48.768;9.184;2022-12-05T00:53:33;33.83;;;15.23;;
27740;SDS011;15134;48.768;9.184;2022-12-05T00:56:03;29.50;;;13.90;;
27740;SDS011;15134;48.768;9.184;2022-12-05T00:58:31;33.67;;;14.27;;
27740;SDS011;15134;48.768;9.184;2022-12-05T01:00:57;34.28;;;15.40;;
27740;SDS011;15134;48.768;9.184;2022-12-05T01:03:30;32.38;;;14.63;;
27740;SDS011;15134;48.768;9.184;2022-12-05T01:05:57;29.67;;;14.27;;
27740;SDS011;15134;48.768;9.184;2022-12-05T01:08:23;34.05;;;14.68;;
27740;SDS011;15134;48.768;9.184;2022-12-05T01:10:53;31.90;;;14.70;;
27740;SDS011;15134;48.768;9.184;2022-12-05T01:13:20;32.40;;;15.45;;
27740;SDS011;15134;48.768;9.184;2022-12-05T01:15:46;33.75;;;13.43;;
27740;SDS011;15134;48.768;9.184;2022-12-05T01:18:11;30.60;;;14.03;;
27740;SDS011;15134;48.768;9.184;2022-12-05T01:20:38;30.67;;;13.57;;
27740;SDS011;15134;48.768;9.184;2022-12-05T01:23:04;33.28;;;13.68;;
27740;SDS011;15134;48.768;9.184;2022-12-05T01:25:33;31.63;;;12.93;;
27740;SDS011;15134;48.768;9.184;2022-12-05T01:27:59;32.33;;;14.05;;
27740;SDS011;15134;48.768;9.184;2022-12-05T01:30:25;35.23;;;14.50;;
27740;SDS011;15134;48.768;9.184;2022-12-05T01:32:51;30.73;;;13.87;;
27740;SDS011;15134;48.768;9.184;2022-12-05T01:35:17;34.73;;;14.50;;
27740;SDS011;15134;48.768;9.184;2022-12-05T01:37:44;31.40;;;13.23;;
27740;SDS011;15134;48.768;9.184;2022-12-05T01:40:10;28.17;;;12.43;;
27740;SDS011;15134;48.768;9.184;2022-12-05T01:42:37;30.50;;;12.50;;
27740;SDS011;15134;48.768;9.184;2022-12-05T01:45:12;36.63;;;14.35;;
27740;SDS011;15134;48.768;9.184;2022-12-05T01:47:40;33.47;;;12.95;;
27740;SDS011;15134;48.768;9.184;2022-12-05T01:50:06;31.30;;;13.10;;
27740;SDS011;15134;48.768;9.184;2022-12-05T01:52:33;34.63;;;13.90;;
27740;SDS011;15134;48.768;9.184;2022-12-05T01:55:01;27.42;;;12.25;;
27740;SDS011;15134;48.768;9.184;2022-12-05T01:57:33;33.70;;;13.45;;
27740;SDS011;15134;48.768;9.184;2022-12-05T02:00:01;26.60;;;13.02;;
27740;SDS011;15134;48.768;9.184;2022-12-05T02:02:53;30.75;;;13.48;;
27740;SDS011;15134;48.768;9.184;2022-12-05T02:05:23;29.30;;;11.90;;
27740;SDS011;15134;48.768;9.184;2022-12-05T02:07:52;28.38;;;12.23;;
27740;SDS011;15134;48.768;9.184;2022-12-05T02:10:19;27.38;;;12.85;;
27740;SDS011;15134;48.768;9.184;2022-12-05T02:12:45;28.65;;;12.60;;
27740;SDS011;15134;48.768;9.184;2022-12-05T02:15:27;26.85;;;12.40;;
27740;SDS011;15134;48.768;9.184;2022-12-05T02:20:52;29.10;;;12.75;;
27740;SDS011;15134;48.768;9.184;2022-12-05T02:26:34;30.10;;;12.10;;
27740;SDS011;15134;48.768;9.184;2022-12-05T02:29:46;27.65;;;11.90;;
27740;SDS011;15134;48.768;9.184;2022-12-05T02:38:25;31.75;;;12.93;;
27740;SDS011;15134;48.768;9.184;2022-12-05T02:41:13;28.48;;;12.68;;
27740;SDS011;15134;48.768;9.184;2022-12-05T02:43:55;27.75;;;12.13;;
27740;SDS011;15134;48.768;9.184;2022-12-05T02:46:29;31.35;;;12.95;;
27740;SDS011;15134;48.768;9.184;2022-12-05T02:49:00;33.20;;;14.23;;
27740;SDS011;15134;48.768;9.184;2022-12-05T02:51:43;37.38;;;14.57;;
27740;SDS011;15134;48.768;9.184;2022-12-05T02:54:13;34.35;;;14.15;;
27740;SDS011;15134;48.768;9.184;2022-12-05T02:56:45;35.30;;;14.30;;
27740;SDS011;15134;48.768;9.184;2022-12-05T02:59:11;35.97;;;14.45;;
27740;SDS011;15134;48.768;9.184;2022-12-05T03:01:37;32.77;;;13.47;;
27740;SDS011;15134;48.768;9.184;2022-12-05T03:04:06;33.95;;;14.10;;
27740;SDS011;15134;48.768;9.184;2022-12-05T03:06:36;32.55;;;13.65;;
27740;SDS011;15134;48.768;9.184;2022-12-05T03:09:08;30.90;;;13.73;;
27740;SDS011;15134;48.768;9.184;2022-12-05T03:11:40;33.40;;;13.77;;
27740;SDS011;15134;48.768;9.184;2022-12-05T03:14:18;32.38;;;14.30;;
27740;SDS011;15134;48.768;9.184;2022-12-05T03:16:54;34.28;;;14.25;;
27740;SDS011;15134;48.768;9.184;2022-12-05T03:22:14;34.85;;;13.88;;
27740;SDS011;15134;48.768;9.184;2022-12-05T03:24:50;33.40;;;13.73;;
27740;SDS011;15134;48.768;9.184;2022-12-05T03:30:06;35.15;;;14.73;;
27740;SDS011;15134;48.768;9.184;2022-12-05T03:38:17;30.80;;;13.98;;
27740;SDS011;15134;48.768;9.184;2022-12-05T03:43:34;34.72;;;14.18;;
27740;SDS011;15134;48.768;9.184;2022-12-05T03:46:10;29.33;;;12.98;;
27740;SDS011;15134;48.768;9.184;2022-12-05T03:51:13;33.87;;;14.63;;
27740;SDS011;15134;48.768;9.184;2022-12-05T03:53:43;37.03;;;14.20;;
27740;SDS011;15134;48.768;9.184;2022-12-05T03:56:18;29.50;;;13.25;;
27740;SDS011;15134;48.768;9.184;2022-12-05T03:58:51;35.25;;;15.02;;
27740;SDS011;15134;48.768;9.184;2022-12-05T04:01:22;29.65;;;13.10;;
27740;SDS011;15134;48.768;9.184;2022-12-05T04:03:55;31.73;;;13.57;;
27740;SDS011;15134;48.768;9.184;2022-12-05T04:06:28;33.75;;;13.30;;
27740;SDS011;15134;48.768;9.184;2022-12-05T04:09:03;32.72;;;13.00;;
27740;SDS011;15134;48.768;9.184;2022-12-05T04:11:43;34.03;;;14.13;;
27740;SDS011;15134;48.768;9.184;2022-12-05T04:14:14;33.45;;;13.55;;
27740;SDS011;15134;48.768;9.184;2022-12-05T04:16:45;30.98;;;13.90;;
27740;SDS011;15134;48.768;9.184;2022-12-05T04:22:26;30.83;;;13.43;;
27740;SDS011;15134;48.768;9.184;2022-12-05T04:24:53;31.20;;;12.50;;
27740;SDS011;15134;48.768;9.184;2022-12-05T04:30:18;31.50;;;13.52;;
27740;SDS011;15134;48.768;9.184;2022-12-05T04:32:48;32.35;;;14.35;;
27740;SDS011;15134;48.768;9.184;2022-12-05T04:35:34;35.15;;;13.82;;
27740;SDS011;15134;48.768;9.184;2022-12-05T04:41:08;30.70;;;13.82;;
27740;SDS011;15134;48.768;9.184;2022-12-05T04:43:39;29.10;;;11.98;;
27740;SDS011;15134;48.768;9.184;2022-12-05T04:46:08;29.58;;;12.25;;
27740;SDS011;15134;48.768;9.184;2022-12-05T04:48:37;33.15;;;12.75;;
27740;SDS011;15134;48.768;9.184;2022-12-05T04:51:07;29.90;;;11.88;;
27740;SDS011;15134;48.768;9.184;2022-12-05T04:53:36;29.33;;;13.48;;
27740;SDS011;15134;48.768;9.184;2022-12-05T04:56:05;31.08;;;13.60;;
27740;SDS011;15134;48.768;9.184;2022-12-05T04:58:32;31.45;;;13.00;;
27740;SDS011;15134;48.768;9.184;2022-12-05T05:03:34;34.20;;;13.50;;
27740;SDS011;15134;48.768;9.184;2022-12-05T05:06:10;32.78;;;14.07;;
27740;SDS011;15134;48.768;9.184;2022-12-05T05:08:44;31.52;;;14.25;;
27740;SDS011;15134;48.768;9.184;2022-12-05T05:11:24;33.42;;;13.32;;
27740;SDS011;15134;48.768;9.184;2022-12-05T05:13:52;31.45;;;13.43;;
27740;SDS011;15134;48.768;9.184;2022-12-05T05:16:22;33.40;;;13.77;;
27740;SDS011;15134;48.768;9.184;2022-12-05T05:18:50;31.52;;;13.70;;
27740;SDS011;15134;48.768;9.184;2022-12-05T05:21:24;30.45;;;13.52;;
27740;SDS011;15134;48.768;9.184;2022-12-05T05:23:57;32.58;;;13.52;;
27740;SDS011;15134;48.768;9.184;2022-12-05T05:26:24;31.67;;;13.57;;
27740;SDS011;15134;48.768;9.184;2022-12-05T05:28:55;36.13;;;15.95;;
27740;SDS011;15134;48.768;9.184;2022-12-05T05:31:22;38.22;;;15.00;;
27740;SDS011;15134;48.768;9.184;2022-12-05T05:33:50;37.43;;;14.63;;
27740;SDS011;15134;48.768;9.184;2022-12-05T05:36:17;34.33;;;14.07;;
27740;SDS011;15134;48.768;9.184;2022-12-05T05:38:45;37.00;;;14.82;;
27740;SDS011;15134;48.768;9.184;2022-12-05T05:41:14;34.75;;;13.70;;
27740;SDS011;15134;48.768;9.184;2022-12-05T05:43:44;32.22;;;13.65;;
27740;SDS011;15134;48.768;9.184;2022-12-05T05:46:14;37.97;;;15.55;;
27740;SDS011;15134;48.768;9.184;2022-12-05T05:48:42;31.10;;;14.38;;
27740;SDS011;15134;48.768;9.184;2022-12-05T05:51:09;36.10;;;15.17;;
27740;SDS011;15134;48.768;9.184;2022-12-05T05:53:36;36.00;;;14.32;;
27740;SDS011;15134;48.768;9.184;2022-12-05T05:56:09;32.67;;;13.90;;
27740;SDS011;15134;48.768;9.184;2022-12-05T05:58:37;33.97;;;14.00;;
27740;SDS011;15134;48.768;9.184;2022-12-05T06:01:06;40.03;;;14.60;;
27740;SDS011;15134;48.768;9.184;2022-12-05T06:03:36;34.70;;;14.40;;
27740;SDS011;15134;48.768;9.184;2022-12-05T06:06:04;37.90;;;14.45;;
27740;SDS011;15134;48.768;9.184;2022-12-05T06:08:32;40.28;;;14.82;;
27740;SDS011;15134;48.768;9.184;2022-12-05T06:11:05;38.05;;;14.43;;
27740;SDS011;15134;48.768;9.184;2022-12-05T06:13:31;29.95;;;12.77;;
27740;SDS011;15134;48.768;9.184;2022-12-05T06:15:57;37.77;;;15.50;;
27740;SDS011;15134;48.768;9.184;2022-12-05T06:18:25;31.33;;;13.77;;
27740;SDS011;15134;48.768;9.184;2022-12-05T06:20:51;32.58;;;12.95;;
27740;SDS011;15134;48.768;9.184;2022-12-05T06:23:18;32.72;;;13.57;;
27740;SDS011;15134;48.768;9.184;2022-12-05T06:25:54;32.60;;;13.53;;
27740;SDS011;15134;48.768;9.184;2022-12-05T06:28:21;31.02;;;14.45;;
27740;SDS011;15134;48.768;9.184;2022-12-05T06:30:49;33.97;;;15.07;;
27740;SDS011;15134;48.768;9.184;2022-12-05T06:33:15;28.70;;;13.07;;
27740;SDS011;15134;48.768;9.184;2022-12-05T06:35:40;31.33;;;14.10;;
27740;SDS011;15134;48.768;9.184;2022-12-05T06:38:07;32.03;;;14.68;;
27740;SDS011;15134;48.768;9.184;2022-12-05T06:40:33;30.38;;;13.55;;
27740;SDS011;15134;48.768;9.184;2022-12-05T06:42:59;26.50;;;12.25;;
27740;SDS011;15134;48.768;9.184;2022-12-05T06:45:25;30.53;;;13.03;;
27740;SDS011;15134;48.768;9.184;2022-12-05T06:47:51;27.13;;;12.60;;
27740;SDS011;15134;48.768;9.184;2022-12-05T06:50:20;27.27;;;11.88;;
27740;SDS011;15134;48.768;9.184;2022-12-05T06:52:46;27.50;;;13.18;;
27740;SDS011;15134;48.768;9.184;2022-12-05T06:55:11;26.17;;;12.13;;
27740;SDS011;15134;48.768;9.184;2022-12-05T06:57:37;23.63;;;11.37;;
27740;SDS011;15134;48.768;9.184;2022-12-05T07:00:03;29.03;;;13.00;;
27740;SDS011;15134;48.768;9.184;2022-12-05T07:02:49;26.85;;;12.18;;
27740;SDS011;15134;48.768;9.184;2022-12-05T07:05:16;30.65;;;14.38;;
27740;SDS011;15134;48.768;9.184;2022-12-05T07:07:45;28.48;;;13.05;;
27740;SDS011;15134;48.768;9.184;2022-12-05T07:10:10;30.92;;;13.00;;
27740;SDS011;15134;48.768;9.184;2022-12-05T07:12:36;31.03;;;14.67;;
27740;SDS011;15134;48.768;9.184;2022-12-05T07:15:02;36.83;;;17.97;;
27740;SDS011;15134;48.768;9.184;2022-12-05T07:17:28;28.70;;;12.77;;
27740;SDS011;15134;48.768;9.184;2022-12-05T07:19:56;26.93;;;11.87;;
27740;SDS011;15134;48.768;9.184;2022-12-05T07:22:22;27.85;;;12.07;;
27740;SDS011;15134;48.768;9.184;2022-12-05T07:24:50;27.07;;;12.17;;
27740;SDS011;15134;48.768;9.184;2022-12-05T07:27:23;37.78;;;16.30;;
27740;SDS011;15134;48.768;9.184;2022-12-05T07:29:48;30.55;;;13.98;;
27740;SDS011;15134;48.768;9.184;2022-12-05T07:32:17;29.17;;;13.80;;
27740;SDS011;15134;48.768;9.184;2022-12-05T07:34:42;34.97;;;15.40;;
27740;SDS011;15134;48.768;9.184;2022-12-05T07:37:09;21.17;;;10.03;;
27740;SDS011;15134;48.768;9.184;2022-12-05T07:39:34;32.25;;;14.15;;
27740;SDS011;15134;48.768;9.184;2022-12-05T07:42:00;26.93;;;12.37;;
27740;SDS011;15134;48.768;9.184;2022-12-05T07:44:26;22.70;;;11.17;;
27740;SDS011;15134;48.768;9.184;2022-12-05T07:46:51;18.67;;;10.13;;
27740;SDS011;15134;48.768;9.184;2022-12-05T07:49:20;22.43;;;11.03;;
27740;SDS011;15134;48.768;9.184;2022-12-05T07:51:46;24.67;;;11.82;;
27740;SDS011;15134;48.768;9.184;2022-12-05T07:54:11;20.80;;;11.17;;
27740;SDS011;15134;48.768;9.184;2022-12-05T07:56:37;20.70;;;10.27;;
27740;SDS011;15134;48.768;9.184;2022-12-05T07:59:03;27.80;;;12.23;;
27740;SDS011;15134;48.768;9.184;2022-12-05T08:01:34;27.87;;;11.97;;
27740;SDS011;15134;48.768;9.184;2022-12-05T08:04:01;28.42;;;12.93;;
27740;SDS011;15134;48.768;9.184;2022-12-05T08:06:27;25.93;;;11.37;;
27740;SDS011;15134;48.768;9.184;2022-12-05T08:08:56;23.35;;;11.57;;
27740;SDS011;15134;48.768;9.184;2022-12-05T08:11:23;23.92;;;12.13;;
27740;SDS011;15134;48.768;9.184;2022-12-05T08:13:51;24.00;;;11.93;;
27740;SDS011;15134;48.768;9.184;2022-12-05T08:16:18;25.58;;;13.40;;
27740;SDS011;15134;48.768;9.184;2022-12-05T08:18:46;23.30;;;11.30;;
27740;SDS011;15134;48.768;9.184;2022-12-05T08:21:13;22.67;;;10.93;;
27740;SDS011;15134;48.768;9.184;2022-12-05T08:23:40;23.35;;;11.00;;
27740;SDS011;15134;48.768;9.184;2022-12-05T08:26:11;22.00;;;10.40;;
27740;SDS011;15134;48.768;9.184;2022-12-05T08:28:45;25.17;;;12.02;;
27740;SDS011;15134;48.768;9.184;2022-12-05T08:31:15;42.90;;;22.15;;
27740;SDS011;15134;48.768;9.184;2022-12-05T08:33:48;21.25;;;11.63;;
27740;SDS011;15134;48.768;9.184;2022-12-05T08:36:14;21.40;;;11.43;;
27740;SDS011;15134;48.768;9.184;2022-12-05T08:38:40;19.53;;;9.67;;
27740;SDS011;15134;48.768;9.184;2022-12-05T08:41:11;20.83;;;9.40;;
27740;SDS011;15134;48.768;9.184;2022-12-05T08:43:40;17.90;;;9.88;;
27740;SDS011;15134;48.768;9.184;2022-12-05T08:46:08;19.92;;;9.98;;
27740;SDS011;15134;48.768;9.184;2022-12-05T08:48:35;19.90;;;10.88;;
27740;SDS011;15134;48.768;9.184;2022-12-05T08:51:05;19.63;;;9.82;;
27740;SDS011;15134;48.768;9.184;2022-12-05T08:53:32;21.23;;;11.32;;
27740;SDS011;15134;48.768;9.184;2022-12-05T08:55:59;21.73;;;10.90;;
27740;SDS011;15134;48.768;9.184;2022-12-05T08:58:26;25.63;;;12.70;;
27740;SDS011;15134;48.768;9.184;2022-12-05T09:01:03;25.73;;;11.50;;
27740;SDS011;15134;48.768;9.184;2022-12-05T09:03:32;22.45;;;10.55;;
27740;SDS011;15134;48.768;9.184;2022-12-05T09:06:12;15.30;;;8.32;;
27740;SDS011;15134;48.768;9.184;2022-12-05T09:08:39;21.40;;;11.13;;
27740;SDS011;15134;48.768;9.184;2022-12-05T09:11:07;19.48;;;10.73;;
27740;SDS011;15134;48.768;9.184;2022-12-05T09:13:35;20.90;;;10.88;;
27740;SDS011;15134;48.768;9.184;2022-12-05T09:16:05;23.45;;;10.65;;
27740;SDS011;15134;48.768;9.184;2022-12-05T09:18:34;21.83;;;10.73;;
27740;SDS011;15134;48.768;9.184;2022-12-05T09:21:04;19.02;;;10.02;;
27740;SDS011;15134;48.768;9.184;2022-12-05T09:23:36;16.80;;;8.52;;
27740;SDS011;15134;48.768;9.184;2022-12-05T09:26:03;19.50;;;9.55;;
27740;SDS011;15134;48.768;9.184;2022-12-05T09:28:30;17.83;;;9.32;;
27740;SDS011;15134;48.768;9.184;2022-12-05T09:31:04;23.35;;;10.15;;
27740;SDS011;15134;48.768;9.184;2022-12-05T09:33:38;17.60;;;8.82;;
27740;SDS011;15134;48.768;9.184;2022-12-05T09:36:06;16.65;;;8.52;;
27740;SDS011;15134;48.768;9.184;2022-12-05T09:38:33;17.73;;;9.13;;
27740;SDS011;15134;48.768;9.184;2022-12-05T09:41:03;13.95;;;8.77;;
27740;SDS011;15134;48.768;9.184;2022-12-05T09:43:40;16.92;;;8.65;;
27740;SDS011;15134;48.768;9.184;2022-12-05T09:46:15;16.52;;;9.27;;
27740;SDS011;15134;48.768;9.184;2022-12-05T09:48:53;16.08;;;8.23;;
27740;SDS011;15134;48.768;9.184;2022-12-05T09:51:24;16.80;;;8.05;;
27740;SDS011;15134;48.768;9.184;2022-12-05T09:53:51;19.23;;;10.07;;
27740;SDS011;15134;48.768;9.184;2022-12-05T09:56:20;16.52;;;8.52;;
27740;SDS011;15134;48.768;9.184;2022-12-05T09:58:57;15.93;;;7.55;;
27740;SDS011;15134;48.768;9.184;2022-12-05T10:09:47;14.30;;;7.13;;
27740;SDS011;15134;48.768;9.184;2022-12-05T10:15:19;11.77;;;6.97;;
27740;SDS011;15134;48.768;9.184;2022-12-05T10:20:59;15.40;;;7.63;;
27740;SDS011;15134;48.768;9.184;2022-12-05T10:26:06;12.85;;;7.28;;
27740;SDS011;15134;48.768;9.184;2022-12-05T10:28:36;11.90;;;7.35;;
27740;SDS011;15134;48.768;9.184;2022-12-05T10:31:42;13.30;;;6.70;;
27740;SDS011;15134;48.768;9.184;2022-12-05T10:34:16;16.10;;;6.32;;
27740;SDS011;15134;48.768;9.184;2022-12-05T10:37:16;12.88;;;7.28;;
27740;SDS011;15134;48.768;9.184;2022-12-05T10:39:44;17.02;;;8.20;;
27740;SDS011;15134;48.768;9.184;2022-12-05T10:42:27;16.88;;;8.02;;
27740;SDS011;15134;48.768;9.184;2022-12-05T10:45:01;30.08;;;15.02;;
27740;SDS011;15134;48.768;9.184;2022-12-05T10:47:29;26.65;;;13.27;;
27740;SDS011;15134;48.768;9.184;2022-12-05T10:49:56;15.05;;;8.20;;
27740;SDS011;15134;48.768;9.184;2022-12-05T10:52:26;15.13;;;8.73;;
27740;SDS011;15134;48.768;9.184;2022-12-05T10:55:02;14.23;;;8.43;;
27740;SDS011;15134;48.768;9.184;2022-12-05T10:57:30;14.10;;;6.60;;
27740;SDS011;15134;48.768;9.184;2022-12-05T10:59:56;8.73;;;4.27;;
27740;SDS011;15134;48.768;9.184;2022-12-05T11:02:25;9.83;;;5.33;;
27740;SDS011;15134;48.768;9.184;2022-12-05T11:04:54;11.30;;;5.35;;
27740;SDS011;15134;48.768;9.184;2022-12-05T11:08:16;9.07;;;5.30;;
27740;SDS011;15134;48.768;9.184;2022-12-05T11:10:18;9.50;;;5.25;;
27740;SDS011;15134;48.768;9.184;2022-12-05T11:12:55;9.70;;;5.75;;
27740;SDS011;15134;48.768;9.184;2022-12-05T11:15:28;8.68;;;5.22;;
27740;SDS011;15134;48.768;9.184;2022-12-05T11:17:57;9.98;;;6.32;;
27740;SDS011;15134;48.768;9.184;2022-12-05T11:20:41;11.05;;;6.18;;
27740;SDS011;15134;48.768;9.184;2022-12-05T11:23:21;11.20;;;5.95;;
27740;SDS011;15134;48.768;9.184;2022-12-05T11:25:55;12.55;;;6.18;;
27740;SDS011;15134;48.768;9.184;2022-12-05T11:28:23;15.55;;;8.73;;
27740;SDS011;15134;48.768;9.184;2022-12-05T11:31:24;11.02;;;6.28;;
27740;SDS011;15134;48.768;9.184;2022-12-05T11:33:59;15.82;;;8.48;;
27740;SDS011;15134;48.768;9.184;2022-12-05T11:36:38;13.95;;;7.53;;
27740;SDS011;15134;48.768;9.184;2022-12-05T11:39:08;11.25;;;5.50;;
27740;SDS011;15134;48.768;9.184;2022-12-05T11:41:47;13.18;;;5.10;;
27740;SDS011;15134;48.768;9.184;2022-12-05T11:44:51;10.77;;;4.93;;
27740;SDS011;15134;48.768;9.184;2022-12-05T11:47:39;11.65;;;6.45;;
27740;SDS011;15134;48.768;9.184;2022-12-05T11:55:41;11.70;;;6.30;;
27740;SDS011;15134;48.768;9.184;2022-12-05T12:01:20;11.18;;;5.90;;
27740;SDS011;15134;48.768;9.184;2022-12-05T12:04:02;8.93;;;4.88;;
27740;SDS011;15134;48.768;9.184;2022-12-05T12:09:39;8.02;;;4.43;;
27740;SDS011;15134;48.768;9.184;2022-12-05T12:18:03;23.75;;;11.48;;
27740;SDS011;15134;48.768;9.184;2022-12-05T12:24:17;10.10;;;4.85;;
27740;SDS011;15134;48.768;9.184;2022-12-05T12:30:11;9.20;;;4.50;;
27740;SDS011;15134;48.768;9.184;2022-12-05T12:33:10;10.32;;;4.70;;
27740;SDS011;15134;48.768;9.184;2022-12-05T12:49:48;10.63;;;6.25;;
27740;SDS011;15134;48.768;9.184;2022-12-05T12:52:45;12.88;;;7.95;;
27740;SDS011;15134;48.768;9.184;2022-12-05T13:03:56;7.07;;;4.00;;
27740;SDS011;15134;48.768;9.184;2022-12-05T13:06:57;9.25;;;5.10;;
27740;SDS011;15134;48.768;9.184;2022-12-05T13:09:35;13.70;;;7.13;;
27740;SDS011;15134;48.768;9.184;2022-12-05T13:12:26;14.02;;;6.25;;
27740;SDS011;15134;48.768;9.184;2022-12-05T13:14:59;14.45;;;5.88;;
27740;SDS011;15134;48.768;9.184;2022-12-05T13:17:28;9.02;;;5.30;;
27740;SDS011;15134;48.768;9.184;2022-12-05T13:19:56;15.25;;;8.38;;
27740;SDS011;15134;48.768;9.184;2022-12-05T13:24:52;21.00;;;10.90;;
27740;SDS011;15134;48.768;9.184;2022-12-05T13:27:22;24.27;;;11.05;;
27740;SDS011;15134;48.768;9.184;2022-12-05T13:34:51;19.50;;;11.03;;
27740;SDS011;15134;48.768;9.184;2022-12-05T13:40:18;22.77;;;13.63;;
27740;SDS011;15134;48.768;9.184;2022-12-05T13:43:19;20.65;;;11.18;;
27740;SDS011;15134;48.768;9.184;2022-12-05T13:46:05;23.35;;;11.13;;
27740;SDS011;15134;48.768;9.184;2022-12-05T13:48:41;26.77;;;11.63;;
27740;SDS011;15134;48.768;9.184;2022-12-05T14:02:47;22.90;;;12.52;;
27740;SDS011;15134;48.768;9.184;2022-12-05T14:07:46;25.17;;;12.93;;
27740;SDS011;15134;48.768;9.184;2022-12-05T14:12:52;24.92;;;12.27;;
27740;SDS011;15134;48.768;9.184;2022-12-05T14:15:30;22.63;;;12.63;;
27740;SDS011;15134;48.768;9.184;2022-12-05T14:32:02;24.50;;;12.50;;
27740;SDS011;15134;48.768;9.184;2022-12-05T14:35:10;23.88;;;12.75;;
27740;SDS011;15134;48.768;9.184;2022-12-05T14:37:34;25.58;;;12.50;;
27740;SDS011;15134;48.768;9.184;2022-12-05T14:40:41;28.20;;;13.00;;
27740;SDS011;15134;48.768;9.184;2022-12-05T14:50:48;24.75;;;13.88;;
27740;SDS011;15134;48.768;9.184;2022-12-05T14:55:45;29.70;;;13.80;;
27740;SDS011;15134;48.768;9.184;2022-12-05T15:00:55;26.40;;;12.65;;
27740;SDS011;15134;48.768;9.184;2022-12-05T15:03:30;25.67;;;13.40;;
27740;SDS011;15134;48.768;9.184;2022-12-05T15:06:05;23.77;;;12.60;;
27740;SDS011;15134;48.768;9.184;2022-12-05T15:08:46;26.27;;;13.23;;
27740;SDS011;15134;48.768;9.184;2022-12-05T15:11:17;28.65;;;13.07;;
27740;SDS011;15134;48.768;9.184;2022-12-05T15:16:33;25.00;;;12.95;;
27740;SDS011;15134;48.768;9.184;2022-12-05T15:19:10;31.80;;;14.50;;
27740;SDS011;15134;48.768;9.184;2022-12-05T15:21:48;23.67;;;13.27;;
27740;SDS011;15134;48.768;9.184;2022-12-05T15:24:20;26.77;;;14.23;;
27740;SDS011;15134;48.768;9.184;2022-12-05T15:26:50;26.20;;;14.18;;
27740;SDS011;15134;48.768;9.184;2022-12-05T15:31:48;24.15;;;13.57;;
27740;SDS011;15134;48.768;9.184;2022-12-05T15:38:12;30.70;;;14.45;;
27740;SDS011;15134;48.768;9.184;2022-12-05T15:40:21;24.35;;;13.48;;
27740;SDS011;15134;48.768;9.184;2022-12-05T15:42:53;24.83;;;13.68;;
27740;SDS011;15134;48.768;9.184;2022-12-05T15:45:27;27.40;;;13.98;;
27740;SDS011;15134;48.768;9.184;2022-12-05T15:47:56;25.60;;;13.70;;
27740;SDS011;15134;48.768;9.184;2022-12-05T15:50:43;24.20;;;13.75;;
27740;SDS011;15134;48.768;9.184;2022-12-05T15:53:34;25.60;;;13.32;;
27740;SDS011;15134;48.768;9.184;2022-12-05T15:56:12;30.35;;;16.42;;
27740;SDS011;15134;48.768;9.184;2022-12-05T15:58:46;35.27;;;16.97;;
27740;SDS011;15134;48.768;9.184;2022-12-05T16:01:27;29.00;;;14.48;;
27740;SDS011;15134;48.768;9.184;2022-12-05T16:06:48;42.83;;;19.90;;
27740;SDS011;15134;48.768;9.184;2022-12-05T16:09:22;38.20;;;20.58;;
27740;SDS011;15134;48.768;9.184;2022-12-05T16:11:55;43.88;;;21.38;;
27740;SDS011;15134;48.768;9.184;2022-12-05T16:14:25;26.48;;;15.00;;
27740;SDS011;15134;48.768;9.184;2022-12-05T16:16:57;27.02;;;14.98;;
27740;SDS011;15134;48.768;9.184;2022-12-05T16:19:30;30.13;;;15.25;;
27740;SDS011;15134;48.768;9.184;2022-12-05T16:22:00;28.27;;;14.85;;
27740;SDS011;15134;48.768;9.184;2022-12-05T16:24:38;32.65;;;16.92;;
27740;SDS011;15134;48.768;9.184;2022-12-05T16:27:23;51.78;;;26.95;;
27740;SDS011;15134;48.768;9.184;2022-12-05T16:30:18;26.38;;;13.07;;
27740;SDS011;15134;48.768;9.184;2022-12-05T16:32:47;28.17;;;15.70;;
27740;SDS011;15134;48.768;9.184;2022-12-05T16:38:19;28.00;;;15.57;;
27740;SDS011;15134;48.768;9.184;2022-12-05T16:45:57;33.75;;;15.82;;
27740;SDS011;15134;48.768;9.184;2022-12-05T16:48:38;28.13;;;16.40;;
27740;SDS011;15134;48.768;9.184;2022-12-05T16:53:54;32.67;;;17.48;;
27740;SDS011;15134;48.768;9.184;2022-12-05T16:56:24;35.30;;;17.40;;
27740;SDS011;15134;48.768;9.184;2022-12-05T16:58:56;27.35;;;15.38;;
27740;SDS011;15134;48.768;9.184;2022-12-05T17:01:25;28.10;;;14.45;;
27740;SDS011;15134;48.768;9.184;2022-12-05T17:03:57;27.58;;;14.88;;
27740;SDS011;15134;48.768;9.184;2022-12-05T17:06:24;33.55;;;15.80;;
27740;SDS011;15134;48.768;9.184;2022-12-05T17:08:53;28.80;;;16.02;;
27740;SDS011;15134;48.768;9.184;2022-12-05T17:11:22;28.60;;;14.80;;
27740;SDS011;15134;48.768;9.184;2022-12-05T17:13:54;42.17;;;24.25;;
27740;SDS011;15134;48.768;9.184;2022-12-05T17:16:21;44.78;;;21.98;;
27740;SDS011;15134;48.768;9.184;2022-12-05T17:18:51;34.80;;;17.55;;
27740;SDS011;15134;48.768;9.184;2022-12-05T17:21:21;29.95;;;16.40;;
27740;SDS011;15134;48.768;9.184;2022-12-05T17:23:50;30.02;;;15.82;;
27740;SDS011;15134;48.768;9.184;2022-12-05T17:26:19;29.03;;;14.70;;
27740;SDS011;15134;48.768;9.184;2022-12-05T17:28:46;30.15;;;15.82;;
27740;SDS011;15134;48.768;9.184;2022-12-05T17:31:22;32.33;;;16.50;;
27740;SDS011;15134;48.768;9.184;2022-12-05T17:33:50;33.45;;;15.88;;
27740;SDS011;15134;48.768;9.184;2022-12-05T17:36:21;29.67;;;17.83;;
27740;SDS011;15134;48.768;9.184;2022-12-05T17:38:48;31.97;;;16.33;;
27740;SDS011;15134;48.768;9.184;2022-12-05T17:41:14;32.03;;;17.63;;
27740;SDS011;15134;48.768;9.184;2022-12-05T17:43:45;33.83;;;18.65;;
27740;SDS011;15134;48.768;9.184;2022-12-05T17:46:19;31.95;;;18.02;;
27740;SDS011;15134;48.768;9.184;2022-12-05T17:48:48;40.23;;;18.00;;
27740;SDS011;15134;48.768;9.184;2022-12-05T17:51:18;31.67;;;15.48;;
27740;SDS011;15134;48.768;9.184;2022-12-05T17:53:47;29.30;;;15.73;;
27740;SDS011;15134;48.768;9.184;2022-12-05T17:56:13;30.60;;;15.60;;